EUN weather

Hassan I Airport
El AaiĂșn, Western Sahara

Public forecast

Using degrees Celsius for public forecast. Weather courtesy of forecast.io.

Current aviation weather report (METAR) for Hassan I Airport

Report is more than 2 hours old.

Retrieved 2019/10/19 07:30 UTC (4 hours ago):

GMML 190730Z 02007KT 3500 BR FEW010 18/18 Q1015 NOSIG M2

Aviation forecast (TAF) for Hassan I Airport

Retrieved 2019/10/19 06:18 UTC (5 hours ago):

TAF TAF GMML 190500Z 1906/2012 02008KT 8000 SCT020